sensor_id;sensor_type;location;lat;lon;timestamp;P1;durP1;ratioP1;P2;durP2;ratioP2
49458;SDS011;35354;51.296;16.924;2022-09-09T00:04:37;16.20;;;14.50;;
49458;SDS011;35354;51.296;16.924;2022-09-09T00:19:05;17.02;;;15.23;;
49458;SDS011;35354;51.296;16.924;2022-09-09T00:21:53;15.80;;;13.93;;
49458;SDS011;35354;51.296;16.924;2022-09-09T00:27:08;17.58;;;14.38;;
49458;SDS011;35354;51.296;16.924;2022-09-09T00:32:19;15.40;;;13.85;;
49458;SDS011;35354;51.296;16.924;2022-09-09T00:37:51;15.93;;;13.07;;
49458;SDS011;35354;51.296;16.924;2022-09-09T00:40:24;18.02;;;14.18;;
49458;SDS011;35354;51.296;16.924;2022-09-09T00:48:11;15.13;;;12.57;;
49458;SDS011;35354;51.296;16.924;2022-09-09T00:50:49;14.13;;;12.68;;
49458;SDS011;35354;51.296;16.924;2022-09-09T00:54:00;14.55;;;13.15;;
49458;SDS011;35354;51.296;16.924;2022-09-09T00:56:37;15.10;;;13.25;;
49458;SDS011;35354;51.296;16.924;2022-09-09T01:01:52;15.30;;;13.35;;
49458;SDS011;35354;51.296;16.924;2022-09-09T01:04:21;15.70;;;13.52;;
49458;SDS011;35354;51.296;16.924;2022-09-09T01:06:57;18.13;;;13.43;;
49458;SDS011;35354;51.296;16.924;2022-09-09T01:12:27;15.63;;;13.35;;
49458;SDS011;35354;51.296;16.924;2022-09-09T01:15:03;14.70;;;12.85;;
49458;SDS011;35354;51.296;16.924;2022-09-09T01:17:30;14.50;;;12.70;;
49458;SDS011;35354;51.296;16.924;2022-09-09T01:22:44;14.73;;;12.05;;
49458;SDS011;35354;51.296;16.924;2022-09-09T01:28:08;17.13;;;12.30;;
49458;SDS011;35354;51.296;16.924;2022-09-09T01:30:54;14.32;;;12.88;;
49458;SDS011;35354;51.296;16.924;2022-09-09T01:33:22;17.50;;;13.02;;
49458;SDS011;35354;51.296;16.924;2022-09-09T01:35:51;13.43;;;11.98;;
49458;SDS011;35354;51.296;16.924;2022-09-09T01:38:22;14.38;;;12.93;;
49458;SDS011;35354;51.296;16.924;2022-09-09T01:40:49;13.60;;;11.95;;
49458;SDS011;35354;51.296;16.924;2022-09-09T01:43:17;14.80;;;11.52;;
49458;SDS011;35354;51.296;16.924;2022-09-09T01:45:44;12.98;;;11.60;;
49458;SDS011;35354;51.296;16.924;2022-09-09T01:48:14;15.30;;;12.27;;
49458;SDS011;35354;51.296;16.924;2022-09-09T01:59:42;16.88;;;12.15;;
49458;SDS011;35354;51.296;16.924;2022-09-09T02:02:17;14.68;;;11.77;;
49458;SDS011;35354;51.296;16.924;2022-09-09T02:04:45;13.25;;;11.90;;
49458;SDS011;35354;51.296;16.924;2022-09-09T02:13:14;11.45;;;10.07;;
49458;SDS011;35354;51.296;16.924;2022-09-09T02:18:52;17.27;;;10.35;;
49458;SDS011;35354;51.296;16.924;2022-09-09T02:21:33;10.38;;;9.43;;
49458;SDS011;35354;51.296;16.924;2022-09-09T02:24:00;12.20;;;9.48;;
49458;SDS011;35354;51.296;16.924;2022-09-09T02:26:30;12.88;;;10.20;;
49458;SDS011;35354;51.296;16.924;2022-09-09T02:28:59;12.48;;;9.15;;
49458;SDS011;35354;51.296;16.924;2022-09-09T02:31:26;10.45;;;9.35;;
49458;SDS011;35354;51.296;16.924;2022-09-09T02:33:56;13.15;;;11.10;;
49458;SDS011;35354;51.296;16.924;2022-09-09T02:36:25;11.23;;;10.13;;
49458;SDS011;35354;51.296;16.924;2022-09-09T02:38:54;12.57;;;9.40;;
49458;SDS011;35354;51.296;16.924;2022-09-09T02:41:21;12.65;;;9.77;;
49458;SDS011;35354;51.296;16.924;2022-09-09T02:43:50;11.27;;;10.02;;
49458;SDS011;35354;51.296;16.924;2022-09-09T02:46:24;12.18;;;10.18;;
49458;SDS011;35354;51.296;16.924;2022-09-09T02:57:02;10.52;;;9.43;;
49458;SDS011;35354;51.296;16.924;2022-09-09T02:59:34;10.05;;;9.05;;
49458;SDS011;35354;51.296;16.924;2022-09-09T03:01:59;11.25;;;9.10;;
49458;SDS011;35354;51.296;16.924;2022-09-09T03:04:24;10.13;;;9.13;;
49458;SDS011;35354;51.296;16.924;2022-09-09T03:06:50;11.18;;;8.65;;
49458;SDS011;35354;51.296;16.924;2022-09-09T03:09:15;10.32;;;9.32;;
49458;SDS011;35354;51.296;16.924;2022-09-09T03:11:41;9.35;;;8.45;;
49458;SDS011;35354;51.296;16.924;2022-09-09T03:14:06;11.90;;;9.73;;
49458;SDS011;35354;51.296;16.924;2022-09-09T03:16:33;9.32;;;8.35;;
49458;SDS011;35354;51.296;16.924;2022-09-09T03:18:59;12.93;;;8.50;;
49458;SDS011;35354;51.296;16.924;2022-09-09T03:21:25;10.00;;;8.88;;
49458;SDS011;35354;51.296;16.924;2022-09-09T03:23:50;9.27;;;8.40;;
49458;SDS011;35354;51.296;16.924;2022-09-09T03:26:16;10.30;;;9.02;;
49458;SDS011;35354;51.296;16.924;2022-09-09T03:28:41;10.00;;;8.98;;
49458;SDS011;35354;51.296;16.924;2022-09-09T03:31:07;9.27;;;7.90;;
49458;SDS011;35354;51.296;16.924;2022-09-09T03:33:35;8.75;;;7.85;;
49458;SDS011;35354;51.296;16.924;2022-09-09T03:36:04;10.02;;;7.97;;
49458;SDS011;35354;51.296;16.924;2022-09-09T03:38:31;9.27;;;8.25;;
49458;SDS011;35354;51.296;16.924;2022-09-09T03:40:57;10.85;;;7.75;;
49458;SDS011;35354;51.296;16.924;2022-09-09T03:43:23;8.73;;;7.93;;
49458;SDS011;35354;51.296;16.924;2022-09-09T03:45:49;10.20;;;8.15;;
49458;SDS011;35354;51.296;16.924;2022-09-09T03:48:15;9.50;;;8.50;;
49458;SDS011;35354;51.296;16.924;2022-09-09T03:50:59;11.13;;;8.48;;
49458;SDS011;35354;51.296;16.924;2022-09-09T03:53:26;9.73;;;8.75;;
49458;SDS011;35354;51.296;16.924;2022-09-09T03:55:52;9.77;;;8.18;;
49458;SDS011;35354;51.296;16.924;2022-09-09T03:58:20;9.27;;;7.57;;
49458;SDS011;35354;51.296;16.924;2022-09-09T04:00:58;11.18;;;8.25;;
49458;SDS011;35354;51.296;16.924;2022-09-09T04:03:25;10.00;;;7.70;;
49458;SDS011;35354;51.296;16.924;2022-09-09T04:05:52;9.55;;;7.88;;
49458;SDS011;35354;51.296;16.924;2022-09-09T04:08:18;8.75;;;7.65;;
49458;SDS011;35354;51.296;16.924;2022-09-09T04:10:45;10.20;;;8.00;;
49458;SDS011;35354;51.296;16.924;2022-09-09T04:13:11;8.10;;;7.30;;
49458;SDS011;35354;51.296;16.924;2022-09-09T04:15:40;8.07;;;7.18;;
49458;SDS011;35354;51.296;16.924;2022-09-09T04:18:05;7.47;;;6.78;;
49458;SDS011;35354;51.296;16.924;2022-09-09T04:20:31;7.97;;;7.18;;
49458;SDS011;35354;51.296;16.924;2022-09-09T04:22:57;8.73;;;7.93;;
49458;SDS011;35354;51.296;16.924;2022-09-09T04:25:22;8.48;;;7.68;;
49458;SDS011;35354;51.296;16.924;2022-09-09T04:27:52;9.98;;;6.53;;
49458;SDS011;35354;51.296;16.924;2022-09-09T04:30:21;8.25;;;7.45;;
49458;SDS011;35354;51.296;16.924;2022-09-09T04:32:47;9.68;;;7.28;;
49458;SDS011;35354;51.296;16.924;2022-09-09T04:35:12;9.02;;;8.23;;
49458;SDS011;35354;51.296;16.924;2022-09-09T04:37:38;8.52;;;7.65;;
49458;SDS011;35354;51.296;16.924;2022-09-09T04:40:03;8.32;;;7.53;;
49458;SDS011;35354;51.296;16.924;2022-09-09T04:42:29;9.65;;;7.55;;
49458;SDS011;35354;51.296;16.924;2022-09-09T04:44:54;8.85;;;7.82;;
49458;SDS011;35354;51.296;16.924;2022-09-09T04:47:20;8.65;;;7.80;;
49458;SDS011;35354;51.296;16.924;2022-09-09T04:49:46;10.65;;;8.30;;
49458;SDS011;35354;51.296;16.924;2022-09-09T04:52:11;8.02;;;7.25;;
49458;SDS011;35354;51.296;16.924;2022-09-09T04:54:37;9.32;;;7.25;;
49458;SDS011;35354;51.296;16.924;2022-09-09T04:57:02;8.43;;;7.63;;
49458;SDS011;35354;51.296;16.924;2022-09-09T04:59:28;9.43;;;7.30;;
49458;SDS011;35354;51.296;16.924;2022-09-09T05:01:53;8.20;;;7.40;;
49458;SDS011;35354;51.296;16.924;2022-09-09T05:04:20;9.15;;;7.10;;
49458;SDS011;35354;51.296;16.924;2022-09-09T05:06:45;8.38;;;7.22;;
49458;SDS011;35354;51.296;16.924;2022-09-09T05:09:11;8.75;;;7.95;;
49458;SDS011;35354;51.296;16.924;2022-09-09T05:11:36;9.88;;;8.05;;
49458;SDS011;35354;51.296;16.924;2022-09-09T05:14:03;8.35;;;7.60;;
49458;SDS011;35354;51.296;16.924;2022-09-09T05:16:29;8.30;;;7.50;;
49458;SDS011;35354;51.296;16.924;2022-09-09T05:18:55;10.77;;;7.85;;
49458;SDS011;35354;51.296;16.924;2022-09-09T05:21:21;8.20;;;7.40;;
49458;SDS011;35354;51.296;16.924;2022-09-09T05:23:48;7.70;;;6.60;;
49458;SDS011;35354;51.296;16.924;2022-09-09T05:26:14;7.22;;;6.55;;
49458;SDS011;35354;51.296;16.924;2022-09-09T05:28:42;8.10;;;6.50;;
49458;SDS011;35354;51.296;16.924;2022-09-09T05:31:08;7.65;;;6.82;;
49458;SDS011;35354;51.296;16.924;2022-09-09T05:33:36;8.10;;;6.57;;
49458;SDS011;35354;51.296;16.924;2022-09-09T05:36:06;10.90;;;5.93;;
49458;SDS011;35354;51.296;16.924;2022-09-09T05:38:33;5.82;;;5.22;;
49458;SDS011;35354;51.296;16.924;2022-09-09T05:40:59;6.32;;;5.72;;
49458;SDS011;35354;51.296;16.924;2022-09-09T05:43:25;6.75;;;5.43;;
49458;SDS011;35354;51.296;16.924;2022-09-09T05:46:02;6.10;;;5.50;;
49458;SDS011;35354;51.296;16.924;2022-09-09T05:48:36;6.18;;;5.57;;
49458;SDS011;35354;51.296;16.924;2022-09-09T05:53:32;8.65;;;5.00;;
49458;SDS011;35354;51.296;16.924;2022-09-09T05:58:31;5.60;;;5.07;;
49458;SDS011;35354;51.296;16.924;2022-09-09T06:01:01;5.78;;;5.05;;
49458;SDS011;35354;51.296;16.924;2022-09-09T06:03:28;7.40;;;4.45;;
49458;SDS011;35354;51.296;16.924;2022-09-09T06:05:57;6.55;;;4.63;;
49458;SDS011;35354;51.296;16.924;2022-09-09T06:08:23;8.63;;;4.60;;
49458;SDS011;35354;51.296;16.924;2022-09-09T06:10:49;4.75;;;4.13;;
49458;SDS011;35354;51.296;16.924;2022-09-09T06:13:14;4.70;;;4.03;;
49458;SDS011;35354;51.296;16.924;2022-09-09T06:15:39;6.15;;;3.90;;
49458;SDS011;35354;51.296;16.924;2022-09-09T06:18:14;7.65;;;4.35;;
49458;SDS011;35354;51.296;16.924;2022-09-09T06:20:42;4.32;;;3.92;;
49458;SDS011;35354;51.296;16.924;2022-09-09T06:23:08;4.90;;;3.90;;
49458;SDS011;35354;51.296;16.924;2022-09-09T06:25:33;7.03;;;3.80;;
49458;SDS011;35354;51.296;16.924;2022-09-09T06:27:59;5.35;;;3.97;;
49458;SDS011;35354;51.296;16.924;2022-09-09T06:30:24;3.78;;;3.42;;
49458;SDS011;35354;51.296;16.924;2022-09-09T06:32:49;5.45;;;3.58;;
49458;SDS011;35354;51.296;16.924;2022-09-09T06:35:16;6.68;;;3.60;;
49458;SDS011;35354;51.296;16.924;2022-09-09T06:37:44;5.10;;;4.43;;
49458;SDS011;35354;51.296;16.924;2022-09-09T06:40:10;6.38;;;3.83;;
49458;SDS011;35354;51.296;16.924;2022-09-09T06:42:36;7.22;;;3.78;;
49458;SDS011;35354;51.296;16.924;2022-09-09T06:45:01;7.78;;;4.28;;
49458;SDS011;35354;51.296;16.924;2022-09-09T06:47:27;5.45;;;3.60;;
49458;SDS011;35354;51.296;16.924;2022-09-09T06:49:53;4.18;;;3.78;;
49458;SDS011;35354;51.296;16.924;2022-09-09T06:52:18;5.40;;;3.72;;
49458;SDS011;35354;51.296;16.924;2022-09-09T06:54:44;5.32;;;3.40;;
49458;SDS011;35354;51.296;16.924;2022-09-09T06:57:10;3.80;;;3.28;;
49458;SDS011;35354;51.296;16.924;2022-09-09T06:59:35;5.35;;;3.58;;
49458;SDS011;35354;51.296;16.924;2022-09-09T07:02:01;3.72;;;3.25;;
49458;SDS011;35354;51.296;16.924;2022-09-09T07:04:26;3.83;;;2.90;;
49458;SDS011;35354;51.296;16.924;2022-09-09T07:06:52;3.67;;;3.30;;
49458;SDS011;35354;51.296;16.924;2022-09-09T07:09:17;3.78;;;2.78;;
49458;SDS011;35354;51.296;16.924;2022-09-09T07:11:46;4.85;;;3.60;;
49458;SDS011;35354;51.296;16.924;2022-09-09T07:14:14;3.70;;;3.30;;
49458;SDS011;35354;51.296;16.924;2022-09-09T07:16:40;3.75;;;3.45;;
49458;SDS011;35354;51.296;16.924;2022-09-09T07:19:06;4.35;;;3.42;;
49458;SDS011;35354;51.296;16.924;2022-09-09T07:21:32;4.78;;;3.97;;
49458;SDS011;35354;51.296;16.924;2022-09-09T07:23:58;5.10;;;4.13;;
49458;SDS011;35354;51.296;16.924;2022-09-09T07:26:28;5.82;;;5.13;;
49458;SDS011;35354;51.296;16.924;2022-09-09T07:28:55;4.95;;;4.30;;
49458;SDS011;35354;51.296;16.924;2022-09-09T07:31:30;5.03;;;4.00;;
49458;SDS011;35354;51.296;16.924;2022-09-09T07:33:57;6.72;;;4.28;;
49458;SDS011;35354;51.296;16.924;2022-09-09T07:36:28;3.95;;;3.50;;
49458;SDS011;35354;51.296;16.924;2022-09-09T07:38:56;5.57;;;3.42;;
49458;SDS011;35354;51.296;16.924;2022-09-09T07:41:25;3.92;;;2.78;;
49458;SDS011;35354;51.296;16.924;2022-09-09T07:43:53;4.07;;;3.08;;
49458;SDS011;35354;51.296;16.924;2022-09-09T07:46:19;4.63;;;2.85;;
49458;SDS011;35354;51.296;16.924;2022-09-09T07:48:47;8.15;;;3.60;;
49458;SDS011;35354;51.296;16.924;2022-09-09T07:51:18;3.78;;;3.40;;
49458;SDS011;35354;51.296;16.924;2022-09-09T07:53:46;5.03;;;3.33;;
49458;SDS011;35354;51.296;16.924;2022-09-09T07:56:13;4.68;;;3.13;;
49458;SDS011;35354;51.296;16.924;2022-09-09T07:58:42;4.05;;;2.90;;
49458;SDS011;35354;51.296;16.924;2022-09-09T08:01:10;3.70;;;2.90;;
49458;SDS011;35354;51.296;16.924;2022-09-09T08:03:43;4.35;;;2.92;;
49458;SDS011;35354;51.296;16.924;2022-09-09T08:06:09;3.55;;;2.95;;
49458;SDS011;35354;51.296;16.924;2022-09-09T08:08:36;4.05;;;3.22;;
49458;SDS011;35354;51.296;16.924;2022-09-09T08:11:03;4.50;;;3.42;;
49458;SDS011;35354;51.296;16.924;2022-09-09T08:13:32;4.25;;;3.40;;
49458;SDS011;35354;51.296;16.924;2022-09-09T08:16:05;4.18;;;3.25;;
49458;SDS011;35354;51.296;16.924;2022-09-09T08:18:34;3.70;;;3.10;;
49458;SDS011;35354;51.296;16.924;2022-09-09T08:21:07;3.72;;;3.33;;
49458;SDS011;35354;51.296;16.924;2022-09-09T08:23:34;4.50;;;3.50;;
49458;SDS011;35354;51.296;16.924;2022-09-09T08:26:19;3.55;;;3.25;;
49458;SDS011;35354;51.296;16.924;2022-09-09T08:28:47;4.20;;;2.92;;
49458;SDS011;35354;51.296;16.924;2022-09-09T08:31:18;5.38;;;3.28;;
49458;SDS011;35354;51.296;16.924;2022-09-09T08:33:46;4.78;;;2.83;;
49458;SDS011;35354;51.296;16.924;2022-09-09T08:36:13;4.60;;;3.30;;
49458;SDS011;35354;51.296;16.924;2022-09-09T08:38:41;3.88;;;2.58;;
49458;SDS011;35354;51.296;16.924;2022-09-09T08:49:36;3.13;;;2.83;;
49458;SDS011;35354;51.296;16.924;2022-09-09T08:52:19;6.40;;;3.10;;
49458;SDS011;35354;51.296;16.924;2022-09-09T08:54:49;5.97;;;2.83;;
49458;SDS011;35354;51.296;16.924;2022-09-09T08:57:21;6.03;;;3.42;;
49458;SDS011;35354;51.296;16.924;2022-09-09T08:59:53;6.38;;;3.55;;
49458;SDS011;35354;51.296;16.924;2022-09-09T09:02:24;3.83;;;3.00;;
49458;SDS011;35354;51.296;16.924;2022-09-09T09:13:20;7.97;;;3.08;;
49458;SDS011;35354;51.296;16.924;2022-09-09T09:15:52;5.15;;;2.92;;
49458;SDS011;35354;51.296;16.924;2022-09-09T09:18:22;3.70;;;2.88;;
49458;SDS011;35354;51.296;16.924;2022-09-09T09:23:27;3.88;;;2.60;;
49458;SDS011;35354;51.296;16.924;2022-09-09T09:26:01;4.18;;;2.97;;
49458;SDS011;35354;51.296;16.924;2022-09-09T09:28:27;4.05;;;2.88;;
49458;SDS011;35354;51.296;16.924;2022-09-09T09:30:58;6.00;;;2.95;;
49458;SDS011;35354;51.296;16.924;2022-09-09T09:35:59;5.70;;;2.70;;
49458;SDS011;35354;51.296;16.924;2022-09-09T09:38:26;3.95;;;2.67;;
49458;SDS011;35354;51.296;16.924;2022-09-09T09:40:57;3.63;;;2.50;;
49458;SDS011;35354;51.296;16.924;2022-09-09T09:43:25;6.45;;;2.95;;
49458;SDS011;35354;51.296;16.924;2022-09-09T09:45:53;5.32;;;2.58;;
49458;SDS011;35354;51.296;16.924;2022-09-09T09:48:18;2.97;;;2.13;;
49458;SDS011;35354;51.296;16.924;2022-09-09T09:53:26;4.47;;;2.30;;
49458;SDS011;35354;51.296;16.924;2022-09-09T09:55:58;2.90;;;2.50;;
49458;SDS011;35354;51.296;16.924;2022-09-09T09:58:30;4.93;;;2.60;;
49458;SDS011;35354;51.296;16.924;2022-09-09T10:00:58;2.40;;;2.03;;
49458;SDS011;35354;51.296;16.924;2022-09-09T10:03:32;2.35;;;1.80;;
49458;SDS011;35354;51.296;16.924;2022-09-09T10:06:02;4.70;;;1.92;;
49458;SDS011;35354;51.296;16.924;2022-09-09T10:08:28;3.92;;;2.30;;
49458;SDS011;35354;51.296;16.924;2022-09-09T10:19:41;3.63;;;2.00;;
49458;SDS011;35354;51.296;16.924;2022-09-09T10:33:32;4.10;;;1.98;;
49458;SDS011;35354;51.296;16.924;2022-09-09T10:36:13;5.60;;;2.05;;
49458;SDS011;35354;51.296;16.924;2022-09-09T10:52:42;3.10;;;2.00;;
49458;SDS011;35354;51.296;16.924;2022-09-09T10:55:14;10.85;;;2.97;;
49458;SDS011;35354;51.296;16.924;2022-09-09T10:57:56;2.65;;;2.13;;
49458;SDS011;35354;51.296;16.924;2022-09-09T11:06:05;4.82;;;2.30;;
49458;SDS011;35354;51.296;16.924;2022-09-09T11:08:38;3.05;;;1.85;;
49458;SDS011;35354;51.296;16.924;2022-09-09T11:11:06;1.90;;;1.70;;
49458;SDS011;35354;51.296;16.924;2022-09-09T11:13:58;1.80;;;1.65;;
49458;SDS011;35354;51.296;16.924;2022-09-09T11:19:24;2.55;;;1.70;;
49458;SDS011;35354;51.296;16.924;2022-09-09T11:21:55;4.07;;;1.77;;
49458;SDS011;35354;51.296;16.924;2022-09-09T11:24:27;2.45;;;1.73;;
49458;SDS011;35354;51.296;16.924;2022-09-09T11:27:02;3.17;;;1.60;;
49458;SDS011;35354;51.296;16.924;2022-09-09T11:29:45;7.63;;;3.55;;
49458;SDS011;35354;51.296;16.924;2022-09-09T11:40:59;7.60;;;2.13;;
49458;SDS011;35354;51.296;16.924;2022-09-09T11:43:27;3.22;;;1.88;;
49458;SDS011;35354;51.296;16.924;2022-09-09T11:45:59;2.90;;;2.13;;
49458;SDS011;35354;51.296;16.924;2022-09-09T11:51:04;3.08;;;1.70;;
49458;SDS011;35354;51.296;16.924;2022-09-09T11:53:32;5.93;;;3.10;;
49458;SDS011;35354;51.296;16.924;2022-09-09T11:56:00;2.42;;;1.92;;
49458;SDS011;35354;51.296;16.924;2022-09-09T11:58:27;2.35;;;1.55;;
49458;SDS011;35354;51.296;16.924;2022-09-09T12:00:57;4.68;;;2.58;;
49458;SDS011;35354;51.296;16.924;2022-09-09T12:06:17;2.17;;;1.70;;
49458;SDS011;35354;51.296;16.924;2022-09-09T12:08:51;4.18;;;2.00;;
49458;SDS011;35354;51.296;16.924;2022-09-09T12:11:29;3.13;;;1.95;;
49458;SDS011;35354;51.296;16.924;2022-09-09T12:13:56;2.63;;;1.70;;
49458;SDS011;35354;51.296;16.924;2022-09-09T12:16:35;4.80;;;1.73;;
49458;SDS011;35354;51.296;16.924;2022-09-09T12:19:24;4.13;;;1.67;;
49458;SDS011;35354;51.296;16.924;2022-09-09T12:21:51;2.53;;;1.75;;
49458;SDS011;35354;51.296;16.924;2022-09-09T12:24:37;4.20;;;2.25;;
49458;SDS011;35354;51.296;16.924;2022-09-09T12:27:23;3.65;;;1.90;;
49458;SDS011;35354;51.296;16.924;2022-09-09T12:30:12;2.90;;;1.55;;
49458;SDS011;35354;51.296;16.924;2022-09-09T12:32:40;6.00;;;1.77;;
49458;SDS011;35354;51.296;16.924;2022-09-09T12:35:10;4.03;;;1.73;;
49458;SDS011;35354;51.296;16.924;2022-09-09T12:37:42;2.08;;;1.40;;
49458;SDS011;35354;51.296;16.924;2022-09-09T12:40:24;3.30;;;1.70;;
49458;SDS011;35354;51.296;16.924;2022-09-09T12:42:50;1.67;;;1.35;;
49458;SDS011;35354;51.296;16.924;2022-09-09T12:45:20;3.63;;;1.83;;
49458;SDS011;35354;51.296;16.924;2022-09-09T12:47:54;2.00;;;1.27;;
49458;SDS011;35354;51.296;16.924;2022-09-09T12:50:23;2.88;;;1.60;;
49458;SDS011;35354;51.296;16.924;2022-09-09T12:52:52;2.30;;;1.55;;
49458;SDS011;35354;51.296;16.924;2022-09-09T12:55:25;2.47;;;1.60;;
49458;SDS011;35354;51.296;16.924;2022-09-09T12:57:55;2.40;;;1.35;;
49458;SDS011;35354;51.296;16.924;2022-09-09T13:00:22;2.78;;;1.95;;
49458;SDS011;35354;51.296;16.924;2022-09-09T13:05:24;2.70;;;1.52;;
49458;SDS011;35354;51.296;16.924;2022-09-09T13:08:00;3.00;;;1.80;;
49458;SDS011;35354;51.296;16.924;2022-09-09T13:10:30;2.55;;;1.58;;
49458;SDS011;35354;51.296;16.924;2022-09-09T13:13:03;4.63;;;2.00;;
49458;SDS011;35354;51.296;16.924;2022-09-09T13:15:30;1.90;;;1.42;;
49458;SDS011;35354;51.296;16.924;2022-09-09T13:17:57;2.78;;;1.85;;
49458;SDS011;35354;51.296;16.924;2022-09-09T13:20:26;3.67;;;2.13;;
49458;SDS011;35354;51.296;16.924;2022-09-09T13:22:53;2.25;;;1.50;;
49458;SDS011;35354;51.296;16.924;2022-09-09T13:25:21;2.42;;;1.60;;
49458;SDS011;35354;51.296;16.924;2022-09-09T13:28:03;3.22;;;1.60;;
49458;SDS011;35354;51.296;16.924;2022-09-09T13:30:34;2.05;;;1.30;;
49458;SDS011;35354;51.296;16.924;2022-09-09T13:35:36;1.88;;;1.45;;
49458;SDS011;35354;51.296;16.924;2022-09-09T13:38:19;2.05;;;1.33;;
49458;SDS011;35354;51.296;16.924;2022-09-09T13:40:57;2.22;;;1.70;;
49458;SDS011;35354;51.296;16.924;2022-09-09T13:43:29;5.65;;;1.30;;
49458;SDS011;35354;51.296;16.924;2022-09-09T13:45:59;2.25;;;1.60;;
49458;SDS011;35354;51.296;16.924;2022-09-09T13:48:27;3.10;;;1.60;;
49458;SDS011;35354;51.296;16.924;2022-09-09T13:50:56;3.10;;;1.48;;
49458;SDS011;35354;51.296;16.924;2022-09-09T13:53:27;2.58;;;1.73;;
49458;SDS011;35354;51.296;16.924;2022-09-09T13:55:53;2.30;;;1.40;;
49458;SDS011;35354;51.296;16.924;2022-09-09T13:58:19;5.30;;;2.00;;
49458;SDS011;35354;51.296;16.924;2022-09-09T14:00:45;5.32;;;2.03;;
49458;SDS011;35354;51.296;16.924;2022-09-09T14:03:11;2.95;;;1.65;;
49458;SDS011;35354;51.296;16.924;2022-09-09T14:05:37;2.17;;;1.67;;
49458;SDS011;35354;51.296;16.924;2022-09-09T14:08:03;2.83;;;1.63;;
49458;SDS011;35354;51.296;16.924;2022-09-09T14:10:30;3.10;;;1.65;;
49458;SDS011;35354;51.296;16.924;2022-09-09T14:12:56;2.92;;;1.50;;
49458;SDS011;35354;51.296;16.924;2022-09-09T14:15:21;2.83;;;1.52;;
49458;SDS011;35354;51.296;16.924;2022-09-09T14:17:47;4.95;;;1.60;;
49458;SDS011;35354;51.296;16.924;2022-09-09T14:20:13;2.78;;;1.63;;
49458;SDS011;35354;51.296;16.924;2022-09-09T14:22:40;1.90;;;1.48;;
49458;SDS011;35354;51.296;16.924;2022-09-09T14:25:06;6.10;;;2.72;;
49458;SDS011;35354;51.296;16.924;2022-09-09T14:27:32;5.05;;;2.75;;
49458;SDS011;35354;51.296;16.924;2022-09-09T14:29:58;6.82;;;3.38;;
49458;SDS011;35354;51.296;16.924;2022-09-09T14:32:24;6.07;;;2.45;;
49458;SDS011;35354;51.296;16.924;2022-09-09T14:34:50;3.35;;;1.90;;
49458;SDS011;35354;51.296;16.924;2022-09-09T14:37:16;3.08;;;1.60;;
49458;SDS011;35354;51.296;16.924;2022-09-09T14:39:42;10.50;;;3.92;;
49458;SDS011;35354;51.296;16.924;2022-09-09T14:42:09;3.35;;;1.88;;
49458;SDS011;35354;51.296;16.924;2022-09-09T14:44:38;2.30;;;1.80;;
49458;SDS011;35354;51.296;16.924;2022-09-09T14:47:04;5.20;;;2.40;;
49458;SDS011;35354;51.296;16.924;2022-09-09T14:49:30;9.10;;;2.75;;
49458;SDS011;35354;51.296;16.924;2022-09-09T14:51:56;2.47;;;1.50;;
49458;SDS011;35354;51.296;16.924;2022-09-09T14:54:21;4.60;;;1.95;;
49458;SDS011;35354;51.296;16.924;2022-09-09T14:56:47;2.72;;;1.67;;
49458;SDS011;35354;51.296;16.924;2022-09-09T14:59:13;2.95;;;1.75;;
49458;SDS011;35354;51.296;16.924;2022-09-09T15:01:39;3.25;;;2.00;;
49458;SDS011;35354;51.296;16.924;2022-09-09T15:04:05;7.07;;;2.42;;
49458;SDS011;35354;51.296;16.924;2022-09-09T15:06:32;3.30;;;2.08;;
49458;SDS011;35354;51.296;16.924;2022-09-09T15:08:59;6.43;;;3.08;;
49458;SDS011;35354;51.296;16.924;2022-09-09T15:11:29;15.18;;;2.35;;
49458;SDS011;35354;51.296;16.924;2022-09-09T15:13:57;7.22;;;2.03;;
49458;SDS011;35354;51.296;16.924;2022-09-09T15:16:24;5.50;;;1.90;;
49458;SDS011;35354;51.296;16.924;2022-09-09T15:18:53;3.42;;;2.10;;
49458;SDS011;35354;51.296;16.924;2022-09-09T15:21:21;5.25;;;2.58;;
49458;SDS011;35354;51.296;16.924;2022-09-09T15:23:48;5.22;;;2.05;;
49458;SDS011;35354;51.296;16.924;2022-09-09T15:26:14;6.00;;;2.40;;
49458;SDS011;35354;51.296;16.924;2022-09-09T15:28:41;2.13;;;1.55;;
49458;SDS011;35354;51.296;16.924;2022-09-09T15:31:12;5.40;;;2.08;;
49458;SDS011;35354;51.296;16.924;2022-09-09T15:33:40;4.53;;;2.40;;
49458;SDS011;35354;51.296;16.924;2022-09-09T15:36:19;3.92;;;2.10;;
49458;SDS011;35354;51.296;16.924;2022-09-09T15:38:50;5.82;;;2.10;;
49458;SDS011;35354;51.296;16.924;2022-09-09T15:41:17;4.10;;;2.10;;
49458;SDS011;35354;51.296;16.924;2022-09-09T15:43:47;4.82;;;2.00;;
49458;SDS011;35354;51.296;16.924;2022-09-09T15:46:22;3.53;;;2.03;;
49458;SDS011;35354;51.296;16.924;2022-09-09T15:48:49;4.75;;;2.28;;
49458;SDS011;35354;51.296;16.924;2022-09-09T15:51:16;5.53;;;1.95;;
49458;SDS011;35354;51.296;16.924;2022-09-09T15:53:41;3.10;;;2.03;;
49458;SDS011;35354;51.296;16.924;2022-09-09T15:56:07;10.10;;;8.07;;
49458;SDS011;35354;51.296;16.924;2022-09-09T15:58:33;4.60;;;2.72;;
49458;SDS011;35354;51.296;16.924;2022-09-09T16:01:04;4.25;;;2.00;;
49458;SDS011;35354;51.296;16.924;2022-09-09T16:03:30;4.63;;;2.25;;
49458;SDS011;35354;51.296;16.924;2022-09-09T16:06:06;8.05;;;2.83;;
49458;SDS011;35354;51.296;16.924;2022-09-09T16:08:35;4.32;;;2.20;;
49458;SDS011;35354;51.296;16.924;2022-09-09T16:11:06;6.35;;;2.35;;
49458;SDS011;35354;51.296;16.924;2022-09-09T16:13:39;4.03;;;2.40;;
49458;SDS011;35354;51.296;16.924;2022-09-09T16:16:06;3.33;;;1.92;;
49458;SDS011;35354;51.296;16.924;2022-09-09T16:18:38;6.05;;;2.28;;
49458;SDS011;35354;51.296;16.924;2022-09-09T16:21:06;3.72;;;1.75;;
49458;SDS011;35354;51.296;16.924;2022-09-09T16:23:33;2.92;;;1.67;;
49458;SDS011;35354;51.296;16.924;2022-09-09T16:25:59;3.22;;;2.30;;
49458;SDS011;35354;51.296;16.924;2022-09-09T16:28:25;4.55;;;2.90;;
49458;SDS011;35354;51.296;16.924;2022-09-09T16:30:51;3.72;;;3.17;;
49458;SDS011;35354;51.296;16.924;2022-09-09T16:33:16;5.45;;;3.83;;
49458;SDS011;35354;51.296;16.924;2022-09-09T16:35:42;5.07;;;3.97;;
49458;SDS011;35354;51.296;16.924;2022-09-09T16:38:08;4.57;;;3.30;;
49458;SDS011;35354;51.296;16.924;2022-09-09T16:40:33;5.82;;;2.70;;
49458;SDS011;35354;51.296;16.924;2022-09-09T16:43:00;5.28;;;3.08;;
49458;SDS011;35354;51.296;16.924;2022-09-09T16:45:26;6.60;;;3.40;;
49458;SDS011;35354;51.296;16.924;2022-09-09T16:47:51;5.95;;;3.78;;
49458;SDS011;35354;51.296;16.924;2022-09-09T16:50:17;6.03;;;3.53;;
49458;SDS011;35354;51.296;16.924;2022-09-09T16:52:43;8.35;;;4.25;;
49458;SDS011;35354;51.296;16.924;2022-09-09T16:55:08;6.72;;;5.15;;
49458;SDS011;35354;51.296;16.924;2022-09-09T16:57:34;10.30;;;7.25;;
49458;SDS011;35354;51.296;16.924;2022-09-09T16:59:59;14.57;;;10.48;;
49458;SDS011;35354;51.296;16.924;2022-09-09T17:02:26;11.85;;;5.38;;
49458;SDS011;35354;51.296;16.924;2022-09-09T17:04:51;9.13;;;3.97;;
49458;SDS011;35354;51.296;16.924;2022-09-09T17:07:16;12.05;;;3.55;;
49458;SDS011;35354;51.296;16.924;2022-09-09T17:09:44;5.45;;;3.42;;
49458;SDS011;35354;51.296;16.924;2022-09-09T17:12:10;8.25;;;3.83;;
49458;SDS011;35354;51.296;16.924;2022-09-09T17:14:37;5.97;;;3.63;;
49458;SDS011;35354;51.296;16.924;2022-09-09T17:17:02;7.28;;;5.05;;
49458;SDS011;35354;51.296;16.924;2022-09-09T17:19:29;9.15;;;4.65;;